Terminal Aerodrome Forecast
Issued by NWS

Home | Current Version | Previous Version | Graphics & Text | Print | Product List | Glossary On
Versions: 1 2 3 4 5 6 7 8 9 10 11 12 13 14 15
000
FTUS45 KGGW 160520
TAFOLF
TAF
KOLF 160520Z 1606/1706 VRB03KT P6SM SKC
     FM161000 25006KT P6SM SKC WS020/28035KT
     FM161700 27011KT P6SM FEW190
     FM161900 27015G23KT P6SM FEW250
     FM162300 27010KT P6SM FEW220=

USA.gov is the U.S. government's official web portal to all federal, state and local government web resources and services.